Aérodrome :
LOGIN :

S'inscrire | Disclaimer

   EN    FR    IT 

 










Légende :    VFR   VFR Marginal   IFR   IFR Intensif   IFR Très Intensif
Visi : 
Plafond : 
>= 8 km
>= 3000ft
5 à 8 km
1000 à 3000 ft
1500m à 5 km
500 à 1000 ft
800 à 1500m
200 à 500 ft
< 800m
< 200 ft
Symboles :   Orages  Brouillard  Fortes neiges  Fortes précipitations  Vent > 20 kt
SIGMETs :   Divers  Orages  Givrage  Turbulence  Onde Orograph.  Cendres Volcan.







- Altitude de l'aérodrome : 235 ft
- Code IATA : BZG


EPBY - Bydgoszcz

DERNIER METAR :
  • 251130Z 26005KT 200V310 9999 -SHRA SCT039CB BKN044 07/M01 Q1009

METARs EXPIRÉS :
  • 251100Z 32006KT 260V350 9999 FEW034 SCT043 08/M00 Q1010
  • 251030Z 31005KT 270V350 9999 SCT032 07/M01 Q1010
  • 251000Z 26006KT 9999 FEW028 07/M00 Q1010
  • 250930Z 26005KT 210V310 9999 FEW025 06/01 Q1010
  • 250900Z 23006KT CAVOK 05/02 Q1010

TAF AMD TAF EPBY
Valide du 25 à 07h jusqu'au 26 à 06h UTC


250700Z 2507/2606 23006KT CAVOK
TEMPO 2507/2521 -SHRA SCT013 BKN020CB
PROB30
TEMPO 2511/2516 30018G30KT 2000 TSGS BKN009CB
BECMG 2513/2515 32010KT
PROB40
TEMPO 2513/2518 4000 SHRASN BKN004 BKN014CB
PROB40
TEMPO 2521/2606 4000 BR BKN005
Pas de NOTAMs connus pour ce terrain.



MET'MAP, la Météo Aéronautique d'un coup d'oeil ! - Copyright ORBIFLY Décembre 2007 - Disclaimer

ORBIFLY MET'MAP TEAM :

Programmation & Développement : Alexandra Zaïnal
Conception & Développement : Baudouin d'Aumeries
Co-Programmation & Développement : Marc-Olivier Méhu
Soutien technique & logistique : Manuel Goepfert

Contact : metmap@orbifly.com




SOURCES & CREDITS :

   NOAA